sensor_id;sensor_type;location;lat;lon;timestamp;P1;durP1;ratioP1;P2;durP2;ratioP2
17596;SDS011;8917;50.942;6.946;2023-12-07T00:01:50;14.47;;;10.50;;
17596;SDS011;8917;50.942;6.946;2023-12-07T00:04:21;14.17;;;11.23;;
17596;SDS011;8917;50.942;6.946;2023-12-07T00:06:48;13.47;;;10.43;;
17596;SDS011;8917;50.942;6.946;2023-12-07T00:09:16;14.23;;;10.90;;
17596;SDS011;8917;50.942;6.946;2023-12-07T00:11:43;16.97;;;11.57;;
17596;SDS011;8917;50.942;6.946;2023-12-07T00:14:10;18.10;;;12.27;;
17596;SDS011;8917;50.942;6.946;2023-12-07T00:16:40;18.00;;;11.53;;
17596;SDS011;8917;50.942;6.946;2023-12-07T00:19:10;16.13;;;11.70;;
17596;SDS011;8917;50.942;6.946;2023-12-07T00:21:37;17.33;;;11.90;;
17596;SDS011;8917;50.942;6.946;2023-12-07T00:24:05;15.63;;;11.90;;
17596;SDS011;8917;50.942;6.946;2023-12-07T00:26:32;18.53;;;11.80;;
17596;SDS011;8917;50.942;6.946;2023-12-07T00:29:00;14.23;;;11.40;;
17596;SDS011;8917;50.942;6.946;2023-12-07T00:31:27;13.07;;;9.60;;
17596;SDS011;8917;50.942;6.946;2023-12-07T00:33:54;12.63;;;11.07;;
17596;SDS011;8917;50.942;6.946;2023-12-07T00:36:23;12.57;;;10.30;;
17596;SDS011;8917;50.942;6.946;2023-12-07T00:38:51;14.70;;;9.93;;
17596;SDS011;8917;50.942;6.946;2023-12-07T00:41:18;13.23;;;10.57;;
17596;SDS011;8917;50.942;6.946;2023-12-07T00:43:45;13.67;;;10.13;;
17596;SDS011;8917;50.942;6.946;2023-12-07T00:46:13;16.07;;;10.97;;
17596;SDS011;8917;50.942;6.946;2023-12-07T00:48:40;13.90;;;10.97;;
17596;SDS011;8917;50.942;6.946;2023-12-07T00:51:08;16.93;;;13.37;;
17596;SDS011;8917;50.942;6.946;2023-12-07T00:53:36;16.63;;;11.00;;
17596;SDS011;8917;50.942;6.946;2023-12-07T00:56:04;13.20;;;11.10;;
17596;SDS011;8917;50.942;6.946;2023-12-07T00:58:35;12.57;;;10.23;;
17596;SDS011;8917;50.942;6.946;2023-12-07T01:01:03;14.80;;;9.97;;
17596;SDS011;8917;50.942;6.946;2023-12-07T01:03:30;14.13;;;10.60;;
17596;SDS011;8917;50.942;6.946;2023-12-07T01:05:58;12.43;;;10.47;;
17596;SDS011;8917;50.942;6.946;2023-12-07T01:08:25;13.60;;;11.07;;
17596;SDS011;8917;50.942;6.946;2023-12-07T01:10:54;17.73;;;11.37;;
17596;SDS011;8917;50.942;6.946;2023-12-07T01:13:21;15.33;;;11.03;;
17596;SDS011;8917;50.942;6.946;2023-12-07T01:15:51;15.03;;;10.87;;
17596;SDS011;8917;50.942;6.946;2023-12-07T01:18:18;13.67;;;10.47;;
17596;SDS011;8917;50.942;6.946;2023-12-07T01:20:45;13.57;;;10.97;;
17596;SDS011;8917;50.942;6.946;2023-12-07T01:23:13;14.73;;;10.87;;
17596;SDS011;8917;50.942;6.946;2023-12-07T01:25:40;13.77;;;11.27;;
17596;SDS011;8917;50.942;6.946;2023-12-07T01:28:09;14.67;;;10.57;;
17596;SDS011;8917;50.942;6.946;2023-12-07T01:30:38;14.63;;;10.87;;
17596;SDS011;8917;50.942;6.946;2023-12-07T01:33:06;14.73;;;10.83;;
17596;SDS011;8917;50.942;6.946;2023-12-07T01:35:33;14.77;;;11.07;;
17596;SDS011;8917;50.942;6.946;2023-12-07T01:38:00;15.67;;;10.60;;
17596;SDS011;8917;50.942;6.946;2023-12-07T01:40:33;12.60;;;10.13;;
17596;SDS011;8917;50.942;6.946;2023-12-07T01:43:01;12.73;;;10.87;;
17596;SDS011;8917;50.942;6.946;2023-12-07T01:45:29;13.23;;;11.27;;
17596;SDS011;8917;50.942;6.946;2023-12-07T01:47:57;15.30;;;11.10;;
17596;SDS011;8917;50.942;6.946;2023-12-07T01:50:25;12.80;;;10.83;;
17596;SDS011;8917;50.942;6.946;2023-12-07T01:52:54;15.67;;;11.57;;
17596;SDS011;8917;50.942;6.946;2023-12-07T01:55:22;13.77;;;11.23;;
17596;SDS011;8917;50.942;6.946;2023-12-07T01:57:49;15.67;;;11.50;;
17596;SDS011;8917;50.942;6.946;2023-12-07T02:00:17;14.70;;;10.77;;
17596;SDS011;8917;50.942;6.946;2023-12-07T02:02:46;12.00;;;10.67;;
17596;SDS011;8917;50.942;6.946;2023-12-07T02:05:15;16.93;;;13.50;;
17596;SDS011;8917;50.942;6.946;2023-12-07T02:07:43;12.33;;;10.93;;
17596;SDS011;8917;50.942;6.946;2023-12-07T02:10:13;14.97;;;11.17;;
17596;SDS011;8917;50.942;6.946;2023-12-07T02:12:41;16.70;;;10.73;;
17596;SDS011;8917;50.942;6.946;2023-12-07T02:15:09;14.83;;;10.47;;
17596;SDS011;8917;50.942;6.946;2023-12-07T02:17:38;16.57;;;11.63;;
17596;SDS011;8917;50.942;6.946;2023-12-07T02:20:13;14.13;;;11.00;;
17596;SDS011;8917;50.942;6.946;2023-12-07T02:22:45;14.03;;;10.80;;
17596;SDS011;8917;50.942;6.946;2023-12-07T02:25:15;14.03;;;10.80;;
17596;SDS011;8917;50.942;6.946;2023-12-07T02:27:46;14.83;;;10.87;;
17596;SDS011;8917;50.942;6.946;2023-12-07T02:30:14;14.67;;;10.97;;
17596;SDS011;8917;50.942;6.946;2023-12-07T02:32:42;13.50;;;10.80;;
17596;SDS011;8917;50.942;6.946;2023-12-07T02:35:10;15.03;;;11.23;;
17596;SDS011;8917;50.942;6.946;2023-12-07T02:37:40;12.57;;;10.07;;
17596;SDS011;8917;50.942;6.946;2023-12-07T02:40:08;13.70;;;11.13;;
17596;SDS011;8917;50.942;6.946;2023-12-07T02:42:40;12.33;;;10.87;;
17596;SDS011;8917;50.942;6.946;2023-12-07T02:45:10;13.50;;;11.27;;
17596;SDS011;8917;50.942;6.946;2023-12-07T02:47:38;15.13;;;10.57;;
17596;SDS011;8917;50.942;6.946;2023-12-07T02:50:06;13.43;;;10.60;;
17596;SDS011;8917;50.942;6.946;2023-12-07T02:52:34;14.07;;;10.53;;
17596;SDS011;8917;50.942;6.946;2023-12-07T02:55:01;13.37;;;10.60;;
17596;SDS011;8917;50.942;6.946;2023-12-07T02:57:32;11.53;;;10.33;;
17596;SDS011;8917;50.942;6.946;2023-12-07T02:59:59;13.63;;;10.90;;
17596;SDS011;8917;50.942;6.946;2023-12-07T03:02:32;12.73;;;10.50;;
17596;SDS011;8917;50.942;6.946;2023-12-07T03:05:00;12.03;;;10.17;;
17596;SDS011;8917;50.942;6.946;2023-12-07T03:07:27;12.73;;;10.50;;
17596;SDS011;8917;50.942;6.946;2023-12-07T03:09:57;12.63;;;10.43;;
17596;SDS011;8917;50.942;6.946;2023-12-07T03:12:25;13.23;;;10.27;;
17596;SDS011;8917;50.942;6.946;2023-12-07T03:14:52;13.50;;;9.40;;
17596;SDS011;8917;50.942;6.946;2023-12-07T03:17:20;12.73;;;9.87;;
17596;SDS011;8917;50.942;6.946;2023-12-07T03:19:54;16.57;;;9.93;;
17596;SDS011;8917;50.942;6.946;2023-12-07T03:22:22;11.70;;;9.23;;
17596;SDS011;8917;50.942;6.946;2023-12-07T03:24:50;12.53;;;10.00;;
17596;SDS011;8917;50.942;6.946;2023-12-07T03:27:18;11.83;;;10.10;;
17596;SDS011;8917;50.942;6.946;2023-12-07T03:29:46;12.30;;;9.30;;
17596;SDS011;8917;50.942;6.946;2023-12-07T03:32:17;10.87;;;8.70;;
17596;SDS011;8917;50.942;6.946;2023-12-07T03:34:56;11.33;;;9.07;;
17596;SDS011;8917;50.942;6.946;2023-12-07T03:37:23;11.83;;;8.70;;
17596;SDS011;8917;50.942;6.946;2023-12-07T03:39:51;12.53;;;9.43;;
17596;SDS011;8917;50.942;6.946;2023-12-07T03:42:24;11.60;;;9.07;;
17596;SDS011;8917;50.942;6.946;2023-12-07T03:44:52;10.83;;;8.67;;
17596;SDS011;8917;50.942;6.946;2023-12-07T03:47:19;11.47;;;8.73;;
17596;SDS011;8917;50.942;6.946;2023-12-07T03:49:46;10.60;;;9.27;;
17596;SDS011;8917;50.942;6.946;2023-12-07T03:52:16;10.10;;;8.33;;
17596;SDS011;8917;50.942;6.946;2023-12-07T03:54:43;9.87;;;8.20;;
17596;SDS011;8917;50.942;6.946;2023-12-07T03:57:10;12.47;;;9.03;;
17596;SDS011;8917;50.942;6.946;2023-12-07T03:59:37;10.03;;;8.03;;
17596;SDS011;8917;50.942;6.946;2023-12-07T04:02:05;10.47;;;8.43;;
17596;SDS011;8917;50.942;6.946;2023-12-07T04:04:33;11.80;;;8.77;;
17596;SDS011;8917;50.942;6.946;2023-12-07T04:07:01;12.60;;;8.70;;
17596;SDS011;8917;50.942;6.946;2023-12-07T04:09:29;10.13;;;8.83;;
17596;SDS011;8917;50.942;6.946;2023-12-07T04:11:57;9.37;;;8.47;;
17596;SDS011;8917;50.942;6.946;2023-12-07T04:14:26;9.97;;;8.57;;
17596;SDS011;8917;50.942;6.946;2023-12-07T04:16:54;9.17;;;7.63;;
17596;SDS011;8917;50.942;6.946;2023-12-07T04:19:23;8.80;;;7.90;;
17596;SDS011;8917;50.942;6.946;2023-12-07T04:21:50;9.23;;;8.13;;
17596;SDS011;8917;50.942;6.946;2023-12-07T04:24:21;9.37;;;7.57;;
17596;SDS011;8917;50.942;6.946;2023-12-07T04:26:49;11.17;;;8.60;;
17596;SDS011;8917;50.942;6.946;2023-12-07T04:29:18;9.63;;;8.33;;
17596;SDS011;8917;50.942;6.946;2023-12-07T04:31:45;10.20;;;8.33;;
17596;SDS011;8917;50.942;6.946;2023-12-07T04:34:13;9.50;;;6.93;;
17596;SDS011;8917;50.942;6.946;2023-12-07T04:36:40;12.70;;;8.17;;
17596;SDS011;8917;50.942;6.946;2023-12-07T04:39:09;10.33;;;8.03;;
17596;SDS011;8917;50.942;6.946;2023-12-07T04:41:37;8.60;;;7.57;;
17596;SDS011;8917;50.942;6.946;2023-12-07T04:44:09;9.00;;;7.30;;
17596;SDS011;8917;50.942;6.946;2023-12-07T04:46:37;10.20;;;8.00;;
17596;SDS011;8917;50.942;6.946;2023-12-07T04:49:04;10.70;;;7.83;;
17596;SDS011;8917;50.942;6.946;2023-12-07T04:51:31;10.00;;;7.10;;
17596;SDS011;8917;50.942;6.946;2023-12-07T04:54:00;11.23;;;7.23;;
17596;SDS011;8917;50.942;6.946;2023-12-07T04:56:28;9.17;;;7.17;;
17596;SDS011;8917;50.942;6.946;2023-12-07T04:58:55;10.40;;;7.83;;
17596;SDS011;8917;50.942;6.946;2023-12-07T05:01:26;8.43;;;7.00;;
17596;SDS011;8917;50.942;6.946;2023-12-07T05:03:54;8.70;;;7.13;;
17596;SDS011;8917;50.942;6.946;2023-12-07T05:06:21;7.90;;;6.80;;
17596;SDS011;8917;50.942;6.946;2023-12-07T05:08:49;9.00;;;7.37;;
17596;SDS011;8917;50.942;6.946;2023-12-07T05:11:18;7.33;;;6.63;;
17596;SDS011;8917;50.942;6.946;2023-12-07T05:13:46;9.23;;;7.13;;
17596;SDS011;8917;50.942;6.946;2023-12-07T05:16:13;10.27;;;7.23;;
17596;SDS011;8917;50.942;6.946;2023-12-07T05:18:42;8.27;;;6.77;;
17596;SDS011;8917;50.942;6.946;2023-12-07T05:21:10;9.33;;;7.13;;
17596;SDS011;8917;50.942;6.946;2023-12-07T05:23:40;9.63;;;6.97;;
17596;SDS011;8917;50.942;6.946;2023-12-07T05:26:08;11.00;;;7.20;;
17596;SDS011;8917;50.942;6.946;2023-12-07T05:28:36;8.63;;;7.27;;
17596;SDS011;8917;50.942;6.946;2023-12-07T05:31:03;8.03;;;7.17;;
17596;SDS011;8917;50.942;6.946;2023-12-07T05:33:32;9.13;;;7.27;;
17596;SDS011;8917;50.942;6.946;2023-12-07T05:36:01;8.67;;;7.10;;
17596;SDS011;8917;50.942;6.946;2023-12-07T05:38:28;7.50;;;6.70;;
17596;SDS011;8917;50.942;6.946;2023-12-07T05:40:56;8.67;;;6.63;;
17596;SDS011;8917;50.942;6.946;2023-12-07T05:43:23;10.10;;;6.90;;
17596;SDS011;8917;50.942;6.946;2023-12-07T05:45:52;8.87;;;6.80;;
17596;SDS011;8917;50.942;6.946;2023-12-07T05:48:20;7.93;;;7.13;;
17596;SDS011;8917;50.942;6.946;2023-12-07T05:50:53;8.67;;;7.10;;
17596;SDS011;8917;50.942;6.946;2023-12-07T05:53:31;8.33;;;7.07;;
17596;SDS011;8917;50.942;6.946;2023-12-07T05:55:58;10.23;;;7.43;;
17596;SDS011;8917;50.942;6.946;2023-12-07T05:58:29;9.03;;;7.07;;
17596;SDS011;8917;50.942;6.946;2023-12-07T06:00:57;8.20;;;6.57;;
17596;SDS011;8917;50.942;6.946;2023-12-07T06:03:28;7.73;;;6.57;;
17596;SDS011;8917;50.942;6.946;2023-12-07T06:05:55;7.37;;;6.57;;
17596;SDS011;8917;50.942;6.946;2023-12-07T06:08:22;8.67;;;6.40;;
17596;SDS011;8917;50.942;6.946;2023-12-07T06:10:52;9.90;;;6.60;;
17596;SDS011;8917;50.942;6.946;2023-12-07T06:13:22;7.47;;;6.47;;
17596;SDS011;8917;50.942;6.946;2023-12-07T06:15:50;7.17;;;6.43;;
17596;SDS011;8917;50.942;6.946;2023-12-07T06:18:17;7.63;;;6.67;;
17596;SDS011;8917;50.942;6.946;2023-12-07T06:20:45;9.57;;;6.47;;
17596;SDS011;8917;50.942;6.946;2023-12-07T06:23:12;9.23;;;6.70;;
17596;SDS011;8917;50.942;6.946;2023-12-07T06:25:39;7.93;;;6.17;;
17596;SDS011;8917;50.942;6.946;2023-12-07T06:28:08;8.57;;;6.20;;
17596;SDS011;8917;50.942;6.946;2023-12-07T06:30:36;6.67;;;5.67;;
17596;SDS011;8917;50.942;6.946;2023-12-07T06:33:06;10.47;;;6.30;;
17596;SDS011;8917;50.942;6.946;2023-12-07T06:35:34;8.47;;;6.50;;
17596;SDS011;8917;50.942;6.946;2023-12-07T06:38:01;7.83;;;6.17;;
17596;SDS011;8917;50.942;6.946;2023-12-07T06:40:28;9.03;;;6.60;;
17596;SDS011;8917;50.942;6.946;2023-12-07T06:42:56;8.93;;;6.40;;
17596;SDS011;8917;50.942;6.946;2023-12-07T06:45:25;8.30;;;6.83;;
17596;SDS011;8917;50.942;6.946;2023-12-07T06:47:53;10.10;;;7.13;;
17596;SDS011;8917;50.942;6.946;2023-12-07T06:50:20;9.37;;;6.73;;
17596;SDS011;8917;50.942;6.946;2023-12-07T06:52:50;7.37;;;6.57;;
17596;SDS011;8917;50.942;6.946;2023-12-07T06:55:17;8.30;;;6.67;;
17596;SDS011;8917;50.942;6.946;2023-12-07T06:57:47;9.53;;;7.17;;
17596;SDS011;8917;50.942;6.946;2023-12-07T07:00:17;7.70;;;6.90;;
17596;SDS011;8917;50.942;6.946;2023-12-07T07:02:47;10.03;;;7.57;;
17596;SDS011;8917;50.942;6.946;2023-12-07T07:05:14;8.83;;;7.57;;
17596;SDS011;8917;50.942;6.946;2023-12-07T07:07:46;8.60;;;7.30;;
17596;SDS011;8917;50.942;6.946;2023-12-07T07:10:16;8.33;;;7.20;;
17596;SDS011;8917;50.942;6.946;2023-12-07T07:12:43;8.83;;;7.17;;
17596;SDS011;8917;50.942;6.946;2023-12-07T07:15:11;8.63;;;6.67;;
17596;SDS011;8917;50.942;6.946;2023-12-07T07:17:38;9.30;;;7.67;;
17596;SDS011;8917;50.942;6.946;2023-12-07T07:20:08;10.23;;;8.17;;
17596;SDS011;8917;50.942;6.946;2023-12-07T07:22:35;10.57;;;7.70;;
17596;SDS011;8917;50.942;6.946;2023-12-07T07:25:03;9.43;;;7.73;;
17596;SDS011;8917;50.942;6.946;2023-12-07T07:27:30;8.23;;;7.17;;
17596;SDS011;8917;50.942;6.946;2023-12-07T07:29:59;11.17;;;8.13;;
17596;SDS011;8917;50.942;6.946;2023-12-07T07:32:29;10.03;;;7.90;;
17596;SDS011;8917;50.942;6.946;2023-12-07T07:34:59;12.00;;;7.70;;
17596;SDS011;8917;50.942;6.946;2023-12-07T07:37:28;10.33;;;7.80;;
17596;SDS011;8917;50.942;6.946;2023-12-07T07:39:55;8.63;;;7.13;;
17596;SDS011;8917;50.942;6.946;2023-12-07T07:42:24;9.73;;;7.97;;
17596;SDS011;8917;50.942;6.946;2023-12-07T07:44:54;9.33;;;7.83;;
17596;SDS011;8917;50.942;6.946;2023-12-07T07:47:24;10.57;;;8.20;;
17596;SDS011;8917;50.942;6.946;2023-12-07T07:49:51;9.20;;;7.40;;
17596;SDS011;8917;50.942;6.946;2023-12-07T07:52:19;10.33;;;7.57;;
17596;SDS011;8917;50.942;6.946;2023-12-07T07:54:50;8.70;;;7.43;;
17596;SDS011;8917;50.942;6.946;2023-12-07T07:57:18;10.37;;;7.60;;
17596;SDS011;8917;50.942;6.946;2023-12-07T07:59:45;11.10;;;8.63;;
17596;SDS011;8917;50.942;6.946;2023-12-07T08:02:14;10.27;;;7.80;;
17596;SDS011;8917;50.942;6.946;2023-12-07T08:04:42;9.20;;;8.20;;
17596;SDS011;8917;50.942;6.946;2023-12-07T08:07:09;10.67;;;7.93;;
17596;SDS011;8917;50.942;6.946;2023-12-07T08:09:37;9.97;;;8.60;;
17596;SDS011;8917;50.942;6.946;2023-12-07T08:12:06;12.73;;;8.67;;
17596;SDS011;8917;50.942;6.946;2023-12-07T08:14:34;9.23;;;7.73;;
17596;SDS011;8917;50.942;6.946;2023-12-07T08:17:02;10.47;;;8.20;;
17596;SDS011;8917;50.942;6.946;2023-12-07T08:19:30;12.20;;;8.23;;
17596;SDS011;8917;50.942;6.946;2023-12-07T08:21:57;10.97;;;8.40;;
17596;SDS011;8917;50.942;6.946;2023-12-07T08:24:27;9.30;;;8.40;;
17596;SDS011;8917;50.942;6.946;2023-12-07T08:26:54;10.97;;;8.57;;
17596;SDS011;8917;50.942;6.946;2023-12-07T08:29:23;10.27;;;7.60;;
17596;SDS011;8917;50.942;6.946;2023-12-07T08:31:51;9.60;;;7.83;;
17596;SDS011;8917;50.942;6.946;2023-12-07T08:34:18;11.87;;;8.30;;
17596;SDS011;8917;50.942;6.946;2023-12-07T08:36:51;10.33;;;7.87;;
17596;SDS011;8917;50.942;6.946;2023-12-07T08:39:21;10.33;;;8.23;;
17596;SDS011;8917;50.942;6.946;2023-12-07T08:41:51;10.63;;;8.57;;
17596;SDS011;8917;50.942;6.946;2023-12-07T08:44:19;11.20;;;8.57;;
17596;SDS011;8917;50.942;6.946;2023-12-07T08:46:53;12.00;;;8.67;;
17596;SDS011;8917;50.942;6.946;2023-12-07T08:49:20;10.53;;;8.30;;
17596;SDS011;8917;50.942;6.946;2023-12-07T08:51:48;12.13;;;8.20;;
17596;SDS011;8917;50.942;6.946;2023-12-07T08:54:22;9.70;;;7.83;;
17596;SDS011;8917;50.942;6.946;2023-12-07T08:56:52;12.47;;;8.60;;
17596;SDS011;8917;50.942;6.946;2023-12-07T08:59:19;10.93;;;8.63;;
17596;SDS011;8917;50.942;6.946;2023-12-07T09:01:47;11.73;;;8.50;;
17596;SDS011;8917;50.942;6.946;2023-12-07T09:04:16;11.97;;;8.80;;
17596;SDS011;8917;50.942;6.946;2023-12-07T09:06:43;13.40;;;9.00;;
17596;SDS011;8917;50.942;6.946;2023-12-07T09:09:11;9.93;;;8.47;;
17596;SDS011;8917;50.942;6.946;2023-12-07T09:11:38;9.33;;;8.13;;
17596;SDS011;8917;50.942;6.946;2023-12-07T09:14:05;10.33;;;8.80;;
17596;SDS011;8917;50.942;6.946;2023-12-07T09:16:32;12.60;;;8.93;;
17596;SDS011;8917;50.942;6.946;2023-12-07T09:19:00;11.63;;;9.43;;
17596;SDS011;8917;50.942;6.946;2023-12-07T09:21:29;13.10;;;9.53;;
17596;SDS011;8917;50.942;6.946;2023-12-07T09:23:56;12.23;;;9.10;;
17596;SDS011;8917;50.942;6.946;2023-12-07T09:26:24;10.83;;;8.80;;
17596;SDS011;8917;50.942;6.946;2023-12-07T09:28:56;10.50;;;8.90;;
17596;SDS011;8917;50.942;6.946;2023-12-07T09:31:24;11.90;;;8.83;;
17596;SDS011;8917;50.942;6.946;2023-12-07T09:33:52;11.93;;;9.47;;
17596;SDS011;8917;50.942;6.946;2023-12-07T09:36:21;11.50;;;9.80;;
17596;SDS011;8917;50.942;6.946;2023-12-07T09:38:50;12.67;;;9.40;;
17596;SDS011;8917;50.942;6.946;2023-12-07T09:41:18;11.03;;;9.13;;
17596;SDS011;8917;50.942;6.946;2023-12-07T09:43:46;11.83;;;9.83;;
17596;SDS011;8917;50.942;6.946;2023-12-07T09:46:16;12.00;;;9.13;;
17596;SDS011;8917;50.942;6.946;2023-12-07T09:48:44;11.40;;;9.40;;
17596;SDS011;8917;50.942;6.946;2023-12-07T09:51:15;12.40;;;9.30;;
17596;SDS011;8917;50.942;6.946;2023-12-07T09:53:43;12.70;;;9.97;;
17596;SDS011;8917;50.942;6.946;2023-12-07T09:56:18;12.10;;;9.33;;
17596;SDS011;8917;50.942;6.946;2023-12-07T09:58:46;11.27;;;9.30;;
17596;SDS011;8917;50.942;6.946;2023-12-07T10:01:13;11.37;;;9.00;;
17596;SDS011;8917;50.942;6.946;2023-12-07T10:03:40;11.47;;;9.27;;
17596;SDS011;8917;50.942;6.946;2023-12-07T10:06:09;14.50;;;10.33;;
17596;SDS011;8917;50.942;6.946;2023-12-07T10:08:37;11.80;;;9.17;;
17596;SDS011;8917;50.942;6.946;2023-12-07T10:11:05;11.43;;;8.80;;
17596;SDS011;8917;50.942;6.946;2023-12-07T10:13:35;12.37;;;9.07;;
17596;SDS011;8917;50.942;6.946;2023-12-07T10:16:09;10.67;;;8.93;;
17596;SDS011;8917;50.942;6.946;2023-12-07T10:18:36;13.13;;;9.03;;
17596;SDS011;8917;50.942;6.946;2023-12-07T10:21:06;10.90;;;8.43;;
17596;SDS011;8917;50.942;6.946;2023-12-07T10:23:34;10.30;;;8.53;;
17596;SDS011;8917;50.942;6.946;2023-12-07T10:26:01;11.53;;;9.13;;
17596;SDS011;8917;50.942;6.946;2023-12-07T10:28:42;12.23;;;9.63;;
17596;SDS011;8917;50.942;6.946;2023-12-07T10:31:14;10.63;;;8.60;;
17596;SDS011;8917;50.942;6.946;2023-12-07T10:33:47;10.20;;;8.37;;
17596;SDS011;8917;50.942;6.946;2023-12-07T10:36:14;10.70;;;8.97;;
17596;SDS011;8917;50.942;6.946;2023-12-07T10:38:44;11.70;;;9.60;;
17596;SDS011;8917;50.942;6.946;2023-12-07T10:41:15;10.97;;;9.10;;
17596;SDS011;8917;50.942;6.946;2023-12-07T10:43:46;17.43;;;10.13;;
17596;SDS011;8917;50.942;6.946;2023-12-07T10:46:15;11.67;;;8.97;;
17596;SDS011;8917;50.942;6.946;2023-12-07T10:48:45;9.10;;;8.13;;
17596;SDS011;8917;50.942;6.946;2023-12-07T10:51:13;9.67;;;7.90;;
17596;SDS011;8917;50.942;6.946;2023-12-07T10:53:52;10.53;;;8.57;;
17596;SDS011;8917;50.942;6.946;2023-12-07T10:56:22;9.60;;;8.43;;
17596;SDS011;8917;50.942;6.946;2023-12-07T10:58:52;9.67;;;8.03;;
17596;SDS011;8917;50.942;6.946;2023-12-07T11:01:22;10.13;;;8.20;;
17596;SDS011;8917;50.942;6.946;2023-12-07T11:03:49;10.50;;;8.60;;
17596;SDS011;8917;50.942;6.946;2023-12-07T11:06:17;9.97;;;8.23;;
17596;SDS011;8917;50.942;6.946;2023-12-07T11:08:49;7.97;;;7.17;;
17596;SDS011;8917;50.942;6.946;2023-12-07T11:11:20;11.07;;;8.43;;
17596;SDS011;8917;50.942;6.946;2023-12-07T11:13:53;9.40;;;7.57;;
17596;SDS011;8917;50.942;6.946;2023-12-07T11:16:30;9.33;;;7.20;;
17596;SDS011;8917;50.942;6.946;2023-12-07T11:19:00;10.13;;;7.87;;
17596;SDS011;8917;50.942;6.946;2023-12-07T11:21:27;10.23;;;7.63;;
17596;SDS011;8917;50.942;6.946;2023-12-07T11:23:55;11.20;;;8.20;;
17596;SDS011;8917;50.942;6.946;2023-12-07T11:26:23;11.77;;;8.53;;
17596;SDS011;8917;50.942;6.946;2023-12-07T11:29:01;11.87;;;8.43;;
17596;SDS011;8917;50.942;6.946;2023-12-07T11:31:28;12.40;;;8.67;;
17596;SDS011;8917;50.942;6.946;2023-12-07T11:34:05;16.23;;;10.10;;
17596;SDS011;8917;50.942;6.946;2023-12-07T11:36:39;24.23;;;14.07;;
17596;SDS011;8917;50.942;6.946;2023-12-07T11:39:15;14.93;;;10.57;;
17596;SDS011;8917;50.942;6.946;2023-12-07T11:41:46;14.77;;;11.03;;
17596;SDS011;8917;50.942;6.946;2023-12-07T11:44:26;14.17;;;8.93;;
17596;SDS011;8917;50.942;6.946;2023-12-07T11:47:00;11.57;;;9.27;;
17596;SDS011;8917;50.942;6.946;2023-12-07T11:49:27;13.00;;;9.10;;
17596;SDS011;8917;50.942;6.946;2023-12-07T11:51:56;12.43;;;9.10;;
17596;SDS011;8917;50.942;6.946;2023-12-07T11:54:24;13.60;;;10.40;;
17596;SDS011;8917;50.942;6.946;2023-12-07T11:56:52;12.33;;;8.33;;
17596;SDS011;8917;50.942;6.946;2023-12-07T11:59:20;10.63;;;8.43;;
17596;SDS011;8917;50.942;6.946;2023-12-07T12:01:52;9.20;;;8.30;;
17596;SDS011;8917;50.942;6.946;2023-12-07T12:04:19;10.83;;;8.50;;
17596;SDS011;8917;50.942;6.946;2023-12-07T12:06:53;10.60;;;8.17;;
17596;SDS011;8917;50.942;6.946;2023-12-07T12:09:21;9.57;;;7.93;;
17596;SDS011;8917;50.942;6.946;2023-12-07T12:11:48;11.67;;;8.60;;
17596;SDS011;8917;50.942;6.946;2023-12-07T12:14:16;9.67;;;8.07;;
17596;SDS011;8917;50.942;6.946;2023-12-07T12:16:44;10.53;;;7.37;;
17596;SDS011;8917;50.942;6.946;2023-12-07T12:19:17;10.57;;;7.97;;
17596;SDS011;8917;50.942;6.946;2023-12-07T12:21:44;11.47;;;8.30;;
17596;SDS011;8917;50.942;6.946;2023-12-07T12:24:15;9.67;;;8.00;;
17596;SDS011;8917;50.942;6.946;2023-12-07T12:26:43;10.27;;;8.37;;
17596;SDS011;8917;50.942;6.946;2023-12-07T12:29:12;12.20;;;7.87;;
17596;SDS011;8917;50.942;6.946;2023-12-07T12:31:39;9.73;;;8.17;;
17596;SDS011;8917;50.942;6.946;2023-12-07T12:34:08;9.83;;;7.77;;
17596;SDS011;8917;50.942;6.946;2023-12-07T12:36:39;9.47;;;7.33;;
17596;SDS011;8917;50.942;6.946;2023-12-07T12:39:14;10.33;;;7.40;;
17596;SDS011;8917;50.942;6.946;2023-12-07T12:41:42;9.43;;;7.23;;
17596;SDS011;8917;50.942;6.946;2023-12-07T12:44:09;8.53;;;7.23;;
17596;SDS011;8917;50.942;6.946;2023-12-07T12:46:36;10.90;;;7.30;;
17596;SDS011;8917;50.942;6.946;2023-12-07T12:49:03;10.80;;;8.67;;
17596;SDS011;8917;50.942;6.946;2023-12-07T12:51:33;8.40;;;7.10;;
17596;SDS011;8917;50.942;6.946;2023-12-07T12:54:08;10.47;;;7.50;;
17596;SDS011;8917;50.942;6.946;2023-12-07T12:56:40;11.70;;;7.83;;
17596;SDS011;8917;50.942;6.946;2023-12-07T12:59:09;9.30;;;7.23;;
17596;SDS011;8917;50.942;6.946;2023-12-07T13:01:39;8.77;;;7.13;;
17596;SDS011;8917;50.942;6.946;2023-12-07T13:04:06;8.70;;;7.20;;
17596;SDS011;8917;50.942;6.946;2023-12-07T13:06:35;9.60;;;7.10;;
17596;SDS011;8917;50.942;6.946;2023-12-07T13:09:05;9.50;;;7.43;;
17596;SDS011;8917;50.942;6.946;2023-12-07T13:11:33;10.60;;;7.00;;
17596;SDS011;8917;50.942;6.946;2023-12-07T13:14:00;8.20;;;7.03;;
17596;SDS011;8917;50.942;6.946;2023-12-07T13:16:31;8.13;;;6.30;;
17596;SDS011;8917;50.942;6.946;2023-12-07T13:18:59;8.83;;;6.73;;
17596;SDS011;8917;50.942;6.946;2023-12-07T13:21:31;9.47;;;6.83;;
17596;SDS011;8917;50.942;6.946;2023-12-07T13:23:58;9.17;;;6.53;;
17596;SDS011;8917;50.942;6.946;2023-12-07T13:26:31;10.97;;;6.93;;
17596;SDS011;8917;50.942;6.946;2023-12-07T13:28:59;9.97;;;5.97;;
17596;SDS011;8917;50.942;6.946;2023-12-07T13:31:33;8.73;;;6.53;;
17596;SDS011;8917;50.942;6.946;2023-12-07T13:34:01;7.47;;;6.63;;
17596;SDS011;8917;50.942;6.946;2023-12-07T13:36:28;7.83;;;6.93;;
17596;SDS011;8917;50.942;6.946;2023-12-07T13:39:00;11.30;;;6.70;;
17596;SDS011;8917;50.942;6.946;2023-12-07T13:41:28;10.73;;;6.80;;
17596;SDS011;8917;50.942;6.946;2023-12-07T13:44:00;10.30;;;6.93;;
17596;SDS011;8917;50.942;6.946;2023-12-07T13:46:27;9.47;;;6.43;;
17596;SDS011;8917;50.942;6.946;2023-12-07T13:48:58;9.03;;;6.60;;
17596;SDS011;8917;50.942;6.946;2023-12-07T13:51:26;9.33;;;6.63;;
17596;SDS011;8917;50.942;6.946;2023-12-07T13:53:53;7.57;;;5.97;;
17596;SDS011;8917;50.942;6.946;2023-12-07T13:56:21;6.73;;;5.93;;
17596;SDS011;8917;50.942;6.946;2023-12-07T13:58:49;9.13;;;5.80;;
17596;SDS011;8917;50.942;6.946;2023-12-07T14:01:18;8.30;;;6.27;;
17596;SDS011;8917;50.942;6.946;2023-12-07T14:03:46;9.60;;;6.43;;
17596;SDS011;8917;50.942;6.946;2023-12-07T14:06:21;7.90;;;6.33;;
17596;SDS011;8917;50.942;6.946;2023-12-07T14:08:52;10.77;;;6.43;;
17596;SDS011;8917;50.942;6.946;2023-12-07T14:11:20;6.50;;;5.80;;
17596;SDS011;8917;50.942;6.946;2023-12-07T14:13:47;8.97;;;6.30;;
17596;SDS011;8917;50.942;6.946;2023-12-07T14:16:20;8.20;;;6.03;;
17596;SDS011;8917;50.942;6.946;2023-12-07T14:18:48;6.90;;;5.47;;
17596;SDS011;8917;50.942;6.946;2023-12-07T14:21:20;8.17;;;6.00;;
17596;SDS011;8917;50.942;6.946;2023-12-07T14:23:49;8.53;;;6.57;;
17596;SDS011;8917;50.942;6.946;2023-12-07T14:26:19;7.17;;;6.03;;
17596;SDS011;8917;50.942;6.946;2023-12-07T14:28:46;7.60;;;6.27;;
17596;SDS011;8917;50.942;6.946;2023-12-07T14:31:14;7.57;;;6.33;;
17596;SDS011;8917;50.942;6.946;2023-12-07T14:33:45;9.63;;;6.73;;
17596;SDS011;8917;50.942;6.946;2023-12-07T14:36:13;8.03;;;6.13;;
17596;SDS011;8917;50.942;6.946;2023-12-07T14:38:43;8.50;;;6.67;;
17596;SDS011;8917;50.942;6.946;2023-12-07T14:41:11;10.40;;;7.07;;
17596;SDS011;8917;50.942;6.946;2023-12-07T14:43:41;9.47;;;6.80;;
17596;SDS011;8917;50.942;6.946;2023-12-07T14:46:09;9.33;;;6.50;;
17596;SDS011;8917;50.942;6.946;2023-12-07T14:48:37;8.17;;;6.50;;
17596;SDS011;8917;50.942;6.946;2023-12-07T14:51:06;9.70;;;6.77;;
17596;SDS011;8917;50.942;6.946;2023-12-07T14:53:35;9.23;;;7.17;;
17596;SDS011;8917;50.942;6.946;2023-12-07T14:56:03;10.30;;;6.47;;
17596;SDS011;8917;50.942;6.946;2023-12-07T14:58:32;10.03;;;6.70;;
17596;SDS011;8917;50.942;6.946;2023-12-07T15:01:04;9.93;;;6.60;;